Airfield :
LOGIN :

Register | Disclaimer

   EN    FR    IT 

 










Legend :    VFR   Marginal VFR   IFR   Intensive IFR   Very Intensive IFR
Visi :
Ceiling :
>= 8 km
>= 3000ft
5 to 8 km
1000 to 3000 ft
1500m to 5 km
500 to 1000 ft
800 to 1500m
200 to 500 ft
< 800m
< 200 ft
Symbols :   Thunderstorms  Fog  Heavy snow  Heavy precipitations  Wind > 20 kt
SIGMETs :     Misc.  Thunderstorms  Icing  Turbulence  Mountain Waves  Volcanic Ashes






- Airport Elevation : 194 ft
- IATA code : LME


LFRM - Le Mans

CURRENT METAR :
  • 300300Z AUTO VRB03KT 2200 0650 BCFG FEW001 02/02 Q1021

EXPIRED METARs :
  • 300230Z AUTO 07003KT 2500 BR NSC 03/03 Q1021
  • 300200Z AUTO 07003KT 3300 BR NSC 04/03 Q1021
  • 300130Z AUTO 07003KT 4100 BR NSC 04/04 Q1021
  • 300100Z AUTO 04004KT 9999 NSC 04/04 Q1021
  • 300030Z AUTO 02003KT 9999 NSC 05/04 Q1021
  • 300000Z AUTO VRB02KT 6000 SCT023 06/05 Q1022

TAF AMD TAF LFRM
Valid from the 29 at 18:00 until the 30 at 12:00 UTC


291812Z 2918/3012 VRB02KT 7000 BKN008
TEMPO 2918/3011 0300 FG VV///



MET'MAP, your aeronautical weather chart ! - Copyright ORBIFLY December 2007 - Disclaimer

ORBIFLY MET'MAP TEAM :

Programming & Development : Alexandra Zaïnal
Original concept : Baudouin d'Aumeries
Technical & hardware support : Manuel Goepfert
Assistance : Marc-Olivier Méhu




SOURCES & CREDITS :

   NOAA